Terminal Aerodrome Forecast
Issued by NWS Riverton, WY

Home | Current Version | Previous Version | Text Only | Print | Product List | Glossary On
Versions: 1 2 3 4 5 6 7 8 9 10 11 12 13 14 15 16 17 18 19 20 21 22 23
000
FTUS45 KRIW 262300
TAFRIW
TAF
KRIW 262325Z 2700/2724 02009KT P6SM VCSH SCT015 OVC030
     FM271200 01009KT P6SM VCSH BKN040
     FM271800 VRB05KT P6SM BKN060=

USA.gov is the U.S. government's official web portal to all federal, state and local government web resources and services.